createdAt,value
2018-04-11T00:01:37.246Z,5.87
2018-04-11T00:04:04.769Z,5.20
2018-04-11T00:06:32.295Z,4.50
2018-04-11T00:08:59.813Z,5.33
2018-04-11T00:11:28.155Z,5.40
2018-04-11T00:13:56.721Z,5.50
2018-04-11T00:16:24.223Z,4.70
2018-04-11T00:18:51.740Z,6.27
2018-04-11T00:21:19.265Z,5.73
2018-04-11T00:23:46.791Z,6.73
2018-04-11T00:26:14.357Z,6.83
2018-04-11T00:28:42.648Z,7.10
2018-04-11T00:31:10.164Z,7.67
2018-04-11T00:33:37.710Z,7.70
2018-04-11T00:36:05.244Z,7.67
2018-04-11T00:38:32.776Z,7.70
2018-04-11T00:41:00.287Z,7.07
2018-04-11T00:43:27.825Z,7.00
2018-04-11T00:45:55.327Z,7.17
2018-04-11T00:48:22.877Z,7.40
2018-04-11T00:50:50.395Z,6.90
2018-04-11T00:53:27.646Z,7.30
2018-04-11T00:55:55.183Z,6.23
2018-04-11T00:58:22.712Z,6.60
2018-04-11T01:00:50.202Z,6.10
2018-04-11T01:03:17.757Z,5.33
2018-04-11T01:05:45.272Z,8.00
2018-04-11T01:08:12.799Z,6.07
2018-04-11T01:10:41.089Z,8.20
2018-04-11T01:13:09.700Z,7.07
2018-04-11T01:15:37.242Z,6.87
2018-04-11T01:18:04.775Z,7.70
2018-04-11T01:20:33.097Z,8.70
2018-04-11T01:23:01.408Z,8.93
2018-04-11T01:25:31.682Z,8.50
2018-04-11T01:27:59.183Z,8.83
2018-04-11T01:30:26.762Z,9.30
2018-04-11T01:32:54.261Z,9.10
2018-04-11T01:35:21.814Z,11.20
2018-04-11T01:37:49.396Z,10.67
2018-04-11T01:40:17.698Z,11.20
2018-04-11T01:42:45.205Z,11.30
2018-04-11T01:45:12.780Z,12.70
2018-04-11T01:47:40.746Z,13.90
2018-04-11T01:50:08.289Z,13.90
2018-04-11T01:52:35.843Z,15.33
2018-04-11T01:55:03.396Z,15.30
2018-04-11T01:57:30.912Z,19.00
2018-04-11T02:00:01.128Z,17.67
2018-04-11T02:02:29.424Z,19.13
2018-04-11T02:04:56.965Z,19.33
2018-04-11T02:07:24.512Z,19.77
2018-04-11T02:09:52.070Z,19.63
2018-04-11T02:12:19.610Z,20.70
2018-04-11T02:14:47.136Z,20.03
2018-04-11T02:17:14.940Z,20.90
2018-04-11T02:19:42.703Z,22.50
2018-04-11T02:22:10.231Z,21.27
2018-04-11T02:24:38.799Z,22.60
2018-04-11T02:27:06.413Z,22.70
2018-04-11T02:29:33.942Z,21.23
2018-04-11T02:32:02.266Z,22.80
2018-04-11T02:34:29.753Z,22.73
2018-04-11T02:36:57.320Z,22.57
2018-04-11T02:39:24.866Z,21.23
2018-04-11T02:41:52.906Z,20.83
2018-04-11T02:44:20.440Z,21.30
2018-04-11T02:46:48.055Z,21.33
2018-04-11T02:49:16.362Z,21.60
2018-04-11T02:51:44.666Z,22.23
2018-04-11T02:54:12.213Z,20.70
2018-04-11T02:56:40.515Z,23.97
2018-04-11T02:59:08.031Z,21.57
2018-04-11T03:01:35.558Z,21.63
2018-04-11T03:04:03.098Z,20.67
2018-04-11T03:06:30.626Z,20.87
2018-04-11T03:08:58.179Z,20.23
2018-04-11T03:11:25.731Z,21.43
2018-04-11T03:13:54.010Z,22.00
2018-04-11T03:16:22.568Z,21.13
2018-04-11T03:18:50.114Z,19.30
2018-04-11T03:21:17.619Z,21.07
2018-04-11T03:23:45.191Z,20.20
2018-04-11T03:26:12.715Z,21.00
2018-04-11T03:28:40.293Z,20.87
2018-04-11T03:31:08.380Z,20.67
2018-04-11T03:33:36.914Z,23.33
2018-04-11T03:36:04.460Z,23.67
2018-04-11T03:38:32.019Z,22.73
2018-04-11T03:40:59.595Z,23.60
2018-04-11T03:43:28.108Z,22.07
2018-04-11T03:45:55.638Z,22.40
2018-04-11T03:48:23.167Z,23.10
2018-04-11T03:50:50.686Z,22.30
2018-04-11T03:53:18.223Z,21.67
2018-04-11T03:55:46.534Z,21.33
2018-04-11T03:58:14.879Z,22.37
2018-04-11T04:00:42.445Z,21.73
2018-04-11T04:03:10.011Z,21.23
2018-04-11T04:05:40.440Z,21.80
2018-04-11T04:08:08.217Z,21.53
2018-04-11T04:10:36.684Z,22.20
2018-04-11T04:13:04.236Z,22.40
2018-04-11T04:15:43.542Z,21.47
2018-04-11T04:18:22.817Z,20.50
2018-04-11T04:20:51.271Z,21.50
2018-04-11T04:23:18.836Z,22.03
2018-04-11T04:25:46.455Z,23.13
2018-04-11T04:28:13.998Z,21.10
2018-04-11T04:30:41.544Z,21.53
2018-04-11T04:33:09.113Z,22.00
2018-04-11T04:35:36.671Z,21.50
2018-04-11T04:38:04.261Z,21.87
2018-04-11T04:40:35.748Z,22.93
2018-04-11T04:43:03.310Z,21.50
2018-04-11T04:45:30.824Z,26.20
2018-04-11T04:47:59.124Z,23.80
2018-04-11T04:50:26.712Z,24.20
2018-04-11T04:52:54.234Z,24.00
2018-04-11T04:55:21.852Z,25.37
2018-04-11T04:57:50.107Z,23.23
2018-04-11T05:00:17.630Z,22.67
2018-04-11T05:02:45.951Z,21.53
2018-04-11T05:05:13.474Z,21.80
2018-04-11T05:07:41.045Z,20.20
2018-04-11T05:10:08.635Z,21.50
2018-04-11T05:12:37.941Z,19.43
2018-04-11T05:15:05.510Z,19.03
2018-04-11T05:17:35.248Z,18.40
2018-04-11T05:20:02.807Z,18.60
2018-04-11T05:22:30.351Z,19.10
2018-04-11T05:24:57.881Z,19.47
2018-04-11T05:27:25.410Z,17.47
2018-04-11T05:29:52.930Z,17.87
2018-04-11T05:32:20.464Z,17.63
2018-04-11T05:34:47.992Z,17.60
2018-04-11T05:37:16.252Z,16.17
2018-04-11T05:39:43.786Z,24.07
2018-04-11T05:42:11.290Z,17.10
2018-04-11T05:44:38.791Z,15.87
2018-04-11T05:47:06.308Z,15.90
2018-04-11T05:49:34.567Z,15.43
2018-04-11T05:52:02.868Z,14.90
2018-04-11T05:54:30.353Z,14.90
2018-04-11T05:56:57.865Z,14.43
2018-04-11T05:59:25.358Z,12.90
2018-04-11T06:01:53.640Z,15.60
2018-04-11T06:04:21.169Z,12.87
2018-04-11T06:06:49.402Z,13.07
2018-04-11T06:09:17.702Z,13.20
2018-04-11T06:11:46.043Z,13.00
2018-04-11T06:14:13.486Z,12.73
2018-04-11T06:16:41.006Z,14.47
2018-04-11T06:19:08.728Z,14.00
2018-04-11T06:21:36.306Z,12.40
2018-04-11T06:24:03.858Z,14.17
2018-04-11T06:26:31.387Z,11.40
2018-04-11T06:28:58.950Z,13.67
2018-04-11T06:31:26.474Z,12.33
2018-04-11T06:33:53.963Z,11.57
2018-04-11T06:36:21.473Z,11.90
2018-04-11T06:38:48.970Z,11.83
2018-04-11T06:41:17.246Z,12.27
2018-04-11T06:43:44.730Z,12.23
2018-04-11T06:46:13.047Z,11.87
2018-04-11T06:48:40.538Z,11.87
2018-04-11T06:51:08.051Z,13.17
2018-04-11T06:53:36.309Z,12.43
2018-04-11T06:56:03.797Z,12.47
2018-04-11T06:58:31.302Z,12.30
2018-04-11T07:00:58.794Z,12.93
2018-04-11T07:03:27.079Z,13.77
2018-04-11T07:05:54.571Z,12.57
2018-04-11T07:08:22.112Z,14.13
2018-04-11T07:10:49.598Z,13.87
2018-04-11T07:13:17.110Z,15.13
2018-04-11T07:15:44.597Z,14.03
2018-04-11T07:18:12.140Z,14.20
2018-04-11T07:20:39.643Z,15.07
2018-04-11T07:23:07.157Z,16.10
2018-04-11T07:25:34.641Z,16.13
2018-04-11T07:28:02.150Z,17.63
2018-04-11T07:30:30.407Z,15.83
2018-04-11T07:32:57.919Z,16.73
2018-04-11T07:35:25.405Z,17.80
2018-04-11T07:37:52.930Z,16.40
2018-04-11T07:40:20.461Z,15.83
2018-04-11T07:42:47.934Z,19.67
2018-04-11T07:45:15.425Z,17.53
2018-04-11T07:47:42.938Z,17.70
2018-04-11T07:50:10.429Z,17.50
2018-04-11T07:52:37.942Z,16.33
2018-04-11T07:55:05.438Z,17.40
2018-04-11T07:57:33.914Z,16.90
2018-04-11T08:00:01.398Z,17.10
2018-04-11T08:02:28.886Z,17.90
2018-04-11T08:04:56.396Z,18.30
2018-04-11T08:07:23.883Z,18.40
2018-04-11T08:09:51.400Z,17.13
2018-04-11T08:12:18.970Z,20.33
2018-04-11T08:14:46.487Z,19.57
2018-04-11T08:17:13.972Z,18.47
2018-04-11T08:19:41.486Z,16.73
2018-04-11T08:22:08.982Z,20.30
2018-04-11T08:24:36.510Z,23.37
2018-04-11T08:27:03.992Z,21.07
2018-04-11T08:29:31.495Z,21.10
2018-04-11T08:31:59.013Z,18.53
2018-04-11T08:34:27.274Z,18.87
2018-04-11T08:36:54.771Z,19.17
2018-04-11T08:39:23.057Z,19.63
2018-04-11T08:41:51.318Z,18.43
2018-04-11T08:44:18.849Z,18.87
2018-04-11T08:46:46.341Z,17.43
2018-04-11T08:49:13.850Z,18.50
2018-04-11T08:51:42.106Z,18.30
2018-04-11T08:54:09.615Z,16.33
2018-04-11T08:56:37.871Z,18.60
2018-04-11T08:59:05.359Z,17.63
2018-04-11T09:01:33.633Z,17.93
2018-04-11T09:04:01.123Z,16.47
2018-04-11T09:06:28.632Z,17.77
2018-04-11T09:08:56.123Z,17.90
2018-04-11T09:11:23.638Z,16.40
2018-04-11T09:13:51.893Z,17.20
2018-04-11T09:16:20.329Z,44.07
2018-04-11T09:18:48.580Z,17.50
2018-04-11T09:21:16.092Z,17.00
2018-04-11T09:23:43.580Z,17.20
2018-04-11T09:26:11.111Z,16.37
2018-04-11T09:28:39.386Z,17.43
2018-04-11T09:31:06.899Z,15.83
2018-04-11T09:33:34.398Z,17.30
2018-04-11T09:36:01.909Z,16.07
2018-04-11T09:38:30.167Z,16.70
2018-04-11T09:40:57.683Z,14.50
2018-04-11T09:43:25.177Z,14.97
2018-04-11T09:45:52.687Z,14.40
2018-04-11T09:48:20.171Z,14.30
2018-04-11T09:50:47.683Z,14.50
2018-04-11T09:53:15.178Z,14.77
2018-04-11T09:55:42.683Z,13.53
2018-04-11T09:58:10.169Z,14.30
2018-04-11T10:00:38.450Z,12.47
2018-04-11T10:03:07.158Z,13.43
2018-04-11T10:05:34.682Z,13.70
2018-04-11T10:08:02.171Z,11.90
2018-04-11T10:10:29.675Z,13.27
2018-04-11T10:12:57.925Z,13.20
2018-04-11T10:15:25.412Z,12.70
2018-04-11T10:17:52.926Z,12.30
2018-04-11T10:20:20.415Z,12.17
2018-04-11T10:22:47.919Z,12.03
2018-04-11T10:25:15.397Z,34.63
2018-04-11T10:27:43.670Z,20.10
2018-04-11T10:30:11.158Z,12.80
2018-04-11T10:32:38.678Z,12.30
2018-04-11T10:35:06.162Z,11.97
2018-04-11T10:37:33.669Z,12.73
2018-04-11T10:40:01.166Z,11.53
2018-04-11T10:42:28.674Z,11.97
2018-04-11T10:44:56.166Z,11.80
2018-04-11T10:47:23.675Z,12.27
2018-04-11T10:49:51.167Z,11.50
2018-04-11T10:52:18.679Z,10.87
2018-04-11T10:54:47.121Z,12.00
2018-04-11T10:57:14.626Z,10.90
2018-04-11T10:59:42.114Z,11.77
2018-04-11T11:02:10.386Z,10.40
2018-04-11T11:04:37.914Z,10.97
2018-04-11T11:07:05.425Z,11.13
2018-04-11T11:09:32.917Z,11.13
2018-04-11T11:12:01.195Z,10.50
2018-04-11T11:14:28.701Z,8.73
2018-04-11T11:16:56.182Z,8.43
2018-04-11T11:19:23.685Z,9.70
2018-04-11T11:21:51.175Z,8.40
2018-04-11T11:24:18.673Z,7.53
2018-04-11T11:26:46.918Z,7.50
2018-04-11T11:29:14.427Z,6.37
2018-04-11T11:31:41.912Z,6.33
2018-04-11T11:34:09.447Z,7.00
2018-04-11T11:36:37.706Z,6.03
2018-04-11T11:39:05.209Z,5.20
2018-04-11T11:41:32.689Z,4.47
2018-04-11T11:44:00.953Z,5.00
2018-04-11T11:46:28.446Z,6.03
2018-04-11T11:48:56.725Z,4.73
2018-04-11T11:51:25.095Z,4.77
2018-04-11T11:53:52.622Z,4.63
2018-04-11T11:56:20.098Z,5.10
2018-04-11T11:58:47.608Z,5.30
2018-04-11T12:01:15.091Z,4.33
2018-04-11T12:03:42.597Z,4.60
2018-04-11T12:06:10.073Z,2.37
2018-04-11T12:08:37.584Z,4.10
2018-04-11T12:11:05.067Z,2.00
2018-04-11T12:13:32.696Z,3.27
2018-04-11T12:16:00.199Z,12.83
2018-04-11T12:18:27.710Z,3.40
2018-04-11T12:20:55.199Z,2.10
2018-04-11T12:23:22.719Z,2.13
2018-04-11T12:25:50.231Z,2.40
2018-04-11T12:28:17.719Z,3.60
2018-04-11T12:30:45.987Z,1.70
2018-04-11T12:33:13.462Z,1.70
2018-04-11T12:35:40.966Z,1.73
2018-04-11T12:38:08.453Z,1.63
2018-04-11T12:40:35.954Z,1.43
2018-04-11T12:43:04.202Z,1.80
2018-04-11T12:45:31.713Z,2.73
2018-04-11T12:47:59.974Z,3.63
2018-04-11T12:50:27.498Z,1.90
2018-04-11T12:52:54.981Z,2.20
2018-04-11T12:55:22.498Z,2.40
2018-04-11T12:57:50.000Z,1.93
2018-04-11T13:00:17.510Z,8.17
2018-04-11T13:02:44.986Z,5.53
2018-04-11T13:05:12.494Z,2.53
2018-04-11T13:07:40.746Z,2.17
2018-04-11T13:10:08.282Z,1.63
2018-04-11T13:12:35.758Z,1.90
2018-04-11T13:15:03.288Z,1.97
2018-04-11T13:17:30.798Z,1.93
2018-04-11T13:19:58.310Z,3.50
2018-04-11T13:22:25.801Z,1.80
2018-04-11T13:24:54.057Z,2.40
2018-04-11T13:27:21.566Z,3.90
2018-04-11T13:29:49.414Z,1.60
2018-04-11T13:32:16.910Z,2.20
2018-04-11T13:34:45.154Z,1.77
2018-04-11T13:37:12.659Z,1.87
2018-04-11T13:39:40.144Z,1.70
2018-04-11T13:42:07.658Z,1.93
2018-04-11T13:44:35.150Z,2.03
2018-04-11T13:47:02.652Z,1.80
2018-04-11T13:49:30.898Z,5.00
2018-04-11T13:51:58.401Z,2.50
2018-04-11T13:54:26.659Z,2.07
2018-04-11T13:56:54.159Z,1.90
2018-04-11T13:59:22.414Z,2.90
2018-04-11T14:01:49.917Z,2.87
2018-04-11T14:04:17.475Z,1.93
2018-04-11T14:06:44.997Z,2.87
2018-04-11T14:09:12.507Z,2.00
2018-04-11T14:11:40.025Z,1.97
2018-04-11T14:14:07.515Z,2.10
2018-04-11T14:16:35.030Z,2.13
2018-04-11T14:19:02.522Z,1.80
2018-04-11T14:21:30.018Z,2.20
2018-04-11T14:23:57.527Z,1.97
2018-04-11T14:26:25.104Z,4.13
2018-04-11T14:28:52.736Z,3.03
2018-04-11T14:31:20.223Z,2.50
2018-04-11T14:33:47.750Z,2.57
2018-04-11T14:36:15.237Z,2.47
2018-04-11T14:38:42.744Z,3.47
2018-04-11T14:41:10.238Z,3.87
2018-04-11T14:43:38.526Z,4.30
2018-04-11T14:46:06.795Z,4.27
2018-04-11T14:48:43.990Z,4.70
2018-04-11T14:51:11.509Z,3.23
2018-04-11T14:53:39.016Z,3.80
2018-04-11T14:56:07.455Z,3.37
2018-04-11T14:58:42.270Z,3.10
2018-04-11T15:01:09.764Z,3.57
2018-04-11T15:03:37.278Z,2.73
2018-04-11T15:06:04.758Z,2.87
2018-04-11T15:15:18.317Z,2.90
2018-04-11T15:17:46.572Z,2.87
2018-04-11T15:20:16.829Z,3.13
2018-04-11T15:22:44.367Z,4.30
2018-04-11T15:25:11.912Z,3.23
2018-04-11T15:27:39.580Z,4.50
2018-04-11T15:30:07.118Z,5.43
2018-04-11T15:32:35.382Z,4.80
2018-04-11T15:35:02.893Z,5.63
2018-04-11T15:37:31.139Z,5.27
2018-04-11T15:39:58.638Z,5.47
2018-04-11T15:42:26.125Z,5.60
2018-04-11T15:44:54.390Z,5.50
2018-04-11T15:47:21.876Z,7.20
2018-04-11T15:49:50.149Z,5.53
2018-04-11T15:52:17.629Z,5.53
2018-04-11T15:54:45.905Z,5.20
2018-04-11T15:57:13.386Z,5.93
2018-04-11T15:59:41.671Z,5.20
2018-04-11T16:02:09.951Z,5.20
2018-04-11T16:04:37.444Z,5.70
2018-04-11T16:07:05.709Z,6.43
2018-04-11T16:09:33.185Z,6.50
2018-04-11T16:12:00.682Z,6.37
2018-04-11T16:14:28.160Z,4.90
2018-04-11T16:16:55.649Z,6.07
2018-04-11T16:19:23.126Z,5.60
2018-04-11T16:21:50.621Z,5.30
2018-04-11T16:24:18.110Z,4.90
2018-04-11T16:26:46.414Z,4.90
2018-04-11T16:29:14.725Z,5.03
2018-04-11T16:31:42.242Z,4.80
2018-04-11T16:34:09.742Z,4.93
2018-04-11T16:36:37.263Z,4.50
2018-04-11T16:39:05.522Z,8.40
2018-04-11T16:41:33.021Z,5.97
2018-04-11T16:44:00.506Z,4.73
2018-04-11T16:46:28.018Z,5.60
2018-04-11T16:48:55.491Z,6.23
2018-04-11T16:51:23.007Z,5.43
2018-04-11T16:53:50.490Z,5.70
2018-04-11T16:56:17.975Z,6.03
2018-04-11T16:58:45.474Z,5.83
2018-04-11T17:01:12.962Z,5.13
2018-04-11T17:03:40.457Z,5.10
2018-04-11T17:06:07.938Z,5.33
2018-04-11T17:08:35.450Z,4.40
2018-04-11T17:11:02.930Z,4.07
2018-04-11T17:13:30.436Z,4.67
2018-04-11T17:15:57.919Z,4.37
2018-04-11T17:18:25.430Z,5.20
2018-04-11T17:21:04.905Z,4.80
2018-04-11T17:23:44.282Z,4.30
2018-04-11T17:37:56.657Z,5.03
2018-04-11T17:40:24.134Z,7.23
2018-04-11T17:42:52.394Z,8.07
2018-04-11T17:45:19.870Z,5.10
2018-04-11T17:47:47.365Z,4.93
2018-04-11T17:50:14.843Z,4.93
2018-04-11T17:52:43.108Z,4.37
2018-04-11T17:55:10.594Z,4.53
2018-04-11T17:57:38.863Z,4.57
2018-04-11T18:00:06.346Z,4.37
2018-04-11T18:02:34.622Z,3.97
2018-04-11T18:05:02.110Z,4.40
2018-04-11T18:07:30.354Z,3.90
2018-04-11T18:09:57.855Z,4.00
2018-04-11T18:12:25.330Z,3.90
2018-04-11T18:14:52.826Z,4.50
2018-04-11T18:17:20.330Z,13.00
2018-04-11T18:19:47.837Z,9.73
2018-04-11T18:22:15.322Z,6.00
2018-04-11T18:24:43.598Z,5.23
2018-04-11T18:27:11.095Z,4.23
2018-04-11T18:29:38.604Z,5.37
2018-04-11T18:32:06.079Z,5.87
2018-04-11T18:34:33.578Z,6.17
2018-04-11T18:37:01.067Z,6.37
2018-04-11T18:39:28.574Z,5.47
2018-04-11T18:41:56.058Z,4.40
2018-04-11T18:44:23.560Z,5.30
2018-04-11T18:46:51.814Z,7.40
2018-04-11T18:49:19.322Z,9.00
2018-04-11T18:51:47.574Z,6.20
2018-04-11T18:54:15.074Z,4.63
2018-04-11T18:56:43.317Z,3.80
2018-04-11T18:59:10.869Z,3.30
2018-04-11T19:01:39.078Z,3.80
2018-04-11T19:04:06.555Z,3.77
2018-04-11T19:06:34.056Z,4.80
2018-04-11T19:09:02.301Z,5.90
2018-04-11T19:11:29.807Z,28.70
2018-04-11T19:13:57.282Z,19.70
2018-04-11T19:16:25.550Z,5.90
2018-04-11T19:18:53.023Z,3.00
2018-04-11T19:21:20.524Z,3.50
2018-04-11T19:23:48.778Z,4.50
2018-04-11T19:26:16.273Z,4.60
2018-04-11T19:28:44.515Z,3.97
2018-04-11T19:31:12.050Z,3.40
2018-04-11T19:33:40.286Z,3.27
2018-04-11T19:36:07.790Z,3.03
2018-04-11T19:38:36.047Z,3.13
2018-04-11T19:41:03.546Z,2.60
2018-04-11T19:43:31.023Z,2.33
2018-04-11T19:45:59.286Z,2.43
2018-04-11T19:48:26.761Z,2.30
2018-04-11T19:50:54.258Z,2.43
2018-04-11T19:53:22.501Z,2.87
2018-04-11T19:55:50.044Z,3.00
2018-04-11T19:58:17.597Z,2.60
2018-04-11T20:00:45.106Z,2.70
2018-04-11T20:03:12.590Z,3.23
2018-04-11T20:05:40.097Z,5.70
2018-04-11T20:08:08.343Z,3.30
2018-04-11T20:10:35.849Z,2.80
2018-04-11T20:13:04.094Z,2.60
2018-04-11T20:15:31.589Z,5.07
2018-04-11T20:17:59.074Z,15.87
2018-04-11T20:20:27.318Z,4.30
2018-04-11T20:22:54.821Z,2.60
2018-04-11T20:25:23.083Z,2.97
2018-04-11T20:27:50.586Z,5.20
2018-04-11T20:30:18.835Z,5.80
2018-04-11T20:32:46.339Z,8.30
2018-04-11T20:35:14.590Z,9.63
2018-04-11T20:37:42.099Z,7.67
2018-04-11T20:40:09.578Z,5.10
2018-04-11T20:42:37.846Z,2.80
2018-04-11T20:45:05.332Z,2.93
2018-04-11T20:47:33.602Z,3.73
2018-04-11T20:50:01.095Z,5.03
2018-04-11T20:52:29.368Z,5.50
2018-04-11T20:54:57.282Z,3.37
2018-04-11T20:57:24.795Z,2.73
2018-04-11T20:59:52.286Z,2.60
2018-04-11T21:02:19.790Z,3.07
2018-04-11T21:04:47.273Z,2.17
2018-04-11T21:07:14.775Z,2.00
2018-04-11T21:09:42.255Z,2.33
2018-04-11T21:12:09.755Z,2.20
2018-04-11T21:14:38.002Z,2.03
2018-04-11T21:17:05.527Z,2.10
2018-04-11T21:19:33.032Z,2.40
2018-04-11T21:22:00.510Z,2.30
2018-04-11T21:24:27.997Z,7.93
2018-04-11T21:26:55.479Z,3.50
2018-04-11T21:29:22.979Z,2.37
2018-04-11T21:31:50.454Z,2.10
2018-04-11T21:34:17.956Z,2.93
2018-04-11T21:36:45.438Z,2.27
2018-04-11T21:39:12.938Z,2.47
2018-04-11T21:41:40.418Z,2.03
2018-04-11T21:44:07.914Z,2.03
2018-04-11T21:46:35.397Z,2.33
2018-04-11T21:49:02.895Z,2.30
2018-04-11T21:51:30.374Z,2.53
2018-04-11T21:53:57.874Z,2.70
2018-04-11T21:56:26.114Z,2.43
2018-04-11T21:58:53.605Z,2.27
2018-04-11T22:01:21.097Z,2.43
2018-04-11T22:03:49.358Z,2.80
2018-04-11T22:06:16.847Z,2.87
2018-04-11T22:08:45.119Z,3.40
2018-04-11T22:11:12.594Z,3.20
2018-04-11T22:13:40.861Z,3.50
2018-04-11T22:16:08.343Z,3.53
2018-04-11T22:18:35.852Z,3.60
2018-04-11T22:21:03.330Z,4.13
2018-04-11T22:23:30.838Z,4.50
2018-04-11T22:25:58.318Z,3.10
2018-04-11T22:28:25.818Z,4.30
2018-04-11T22:30:54.062Z,4.60
2018-04-11T22:33:21.553Z,3.80
2018-04-11T22:35:49.031Z,4.33
2018-04-11T22:38:16.534Z,3.87
2018-04-11T22:40:44.010Z,3.97
2018-04-11T22:43:11.485Z,4.20
2018-04-11T22:45:38.989Z,4.00
2018-04-11T22:48:06.471Z,4.20
2018-04-11T22:50:33.965Z,3.87
2018-04-11T22:53:02.213Z,4.40
2018-04-11T22:55:29.719Z,4.00
2018-04-11T22:57:57.970Z,4.50
2018-04-11T23:00:25.471Z,4.97
2018-04-11T23:02:52.945Z,4.40
2018-04-11T23:05:21.218Z,5.13
2018-04-11T23:07:48.703Z,5.03
2018-04-11T23:10:16.201Z,5.57
2018-04-11T23:12:43.678Z,5.57
2018-04-11T23:15:11.947Z,4.90
2018-04-11T23:17:39.430Z,5.20
2018-04-11T23:20:06.925Z,4.80
2018-04-11T23:22:34.412Z,5.10
2018-04-11T23:25:01.914Z,5.27
2018-04-11T23:27:30.167Z,4.90
2018-04-11T23:29:57.664Z,5.07
2018-04-11T23:32:25.908Z,5.53
2018-04-11T23:34:53.393Z,5.27
2018-04-11T23:37:20.892Z,5.33
2018-04-11T23:39:49.129Z,6.00
2018-04-11T23:42:16.642Z,6.07
2018-04-11T23:44:44.120Z,5.63
2018-04-11T23:47:12.397Z,6.37
2018-04-11T23:49:39.881Z,6.60
2018-04-11T23:52:07.375Z,6.67
2018-04-11T23:54:34.858Z,7.70
2018-04-11T23:57:02.366Z,7.03
2018-04-11T23:59:29.879Z,7.50
